createdAt,value
2022-10-07T00:02:45.854Z,78.30
2022-10-07T00:06:07.825Z,78.47
2022-10-07T00:09:10.455Z,78.74
2022-10-07T00:12:13.257Z,78.97
2022-10-07T00:15:15.894Z,79.14
2022-10-07T00:18:18.594Z,79.37
2022-10-07T00:21:21.243Z,79.34
2022-10-07T00:24:23.980Z,79.29
2022-10-07T00:27:26.621Z,79.35
2022-10-07T00:30:29.406Z,79.37
2022-10-07T00:33:36.850Z,79.61
2022-10-07T00:36:40.050Z,79.69
2022-10-07T00:39:43.797Z,79.72
2022-10-07T00:42:47.065Z,79.80
2022-10-07T00:45:52.175Z,79.91
2022-10-07T00:48:59.820Z,80.06
2022-10-07T00:52:02.899Z,80.28
2022-10-07T00:55:09.779Z,80.29
2022-10-07T00:58:13.054Z,80.32
2022-10-07T01:01:18.325Z,80.26
2022-10-07T01:04:21.059Z,80.29
2022-10-07T01:07:23.811Z,80.28
2022-10-07T01:10:35.629Z,80.33
2022-10-07T01:14:03.590Z,80.33
2022-10-07T01:17:31.961Z,80.30
2022-10-07T01:20:46.920Z,80.46
2022-10-07T01:24:16.272Z,80.57
2022-10-07T01:27:24.236Z,80.75
2022-10-07T01:30:32.045Z,80.82
2022-10-07T01:33:38.084Z,80.98
2022-10-07T01:36:43.900Z,81.11
2022-10-07T01:39:52.086Z,81.23
2022-10-07T01:42:58.279Z,81.39
2022-10-07T01:46:02.738Z,81.58
2022-10-07T01:49:06.692Z,81.70
2022-10-07T01:52:43.140Z,81.67
2022-10-07T01:56:12.606Z,81.66
2022-10-07T01:59:59.079Z,81.85
2022-10-07T02:03:22.065Z,81.89
2022-10-07T02:06:28.049Z,81.94
2022-10-07T02:09:34.154Z,82.11
2022-10-07T02:12:47.845Z,82.14
2022-10-07T02:16:05.928Z,82.14
2022-10-07T02:19:25.808Z,82.10
2022-10-07T02:22:29.491Z,81.97
2022-10-07T02:25:38.119Z,81.96
2022-10-07T02:28:43.739Z,81.95
2022-10-07T02:31:48.559Z,81.91
2022-10-07T02:35:00.344Z,82.02
2022-10-07T02:38:08.498Z,82.00
2022-10-07T02:41:31.397Z,81.84
2022-10-07T02:44:43.862Z,81.91
2022-10-07T02:47:51.861Z,81.89
2022-10-07T02:51:00.467Z,81.93
2022-10-07T02:54:05.174Z,81.96
2022-10-07T02:57:09.679Z,82.04
2022-10-07T03:00:15.332Z,82.00
2022-10-07T03:03:19.369Z,82.11
2022-10-07T03:06:24.057Z,82.17
2022-10-07T03:09:28.531Z,82.18
2022-10-07T03:12:31.503Z,82.28
2022-10-07T03:15:41.819Z,82.51
2022-10-07T03:18:46.572Z,82.60
2022-10-07T03:21:50.117Z,82.71
2022-10-07T03:24:54.360Z,82.68
2022-10-07T03:27:58.230Z,82.64
2022-10-07T03:31:10.305Z,82.66
2022-10-07T03:34:13.218Z,82.88
2022-10-07T03:37:17.045Z,83.04
2022-10-07T03:40:20.423Z,83.05
2022-10-07T03:43:25.139Z,83.19
2022-10-07T03:46:27.873Z,83.07
2022-10-07T03:49:31.004Z,83.20
2022-10-07T03:52:33.525Z,83.37
2022-10-07T03:55:38.012Z,83.50
2022-10-07T03:58:40.544Z,83.56
2022-10-07T04:01:44.275Z,83.51
2022-10-07T04:04:47.008Z,83.58
2022-10-07T04:07:52.130Z,83.55
2022-10-07T04:10:57.247Z,83.51
2022-10-07T04:14:00.762Z,83.64
2022-10-07T04:17:03.893Z,83.67
2022-10-07T04:20:07.593Z,83.72
2022-10-07T04:23:10.574Z,83.77
2022-10-07T04:26:13.563Z,83.64
2022-10-07T04:29:16.693Z,83.58
2022-10-07T04:32:19.931Z,83.63
2022-10-07T04:35:23.282Z,83.62
2022-10-07T04:38:28.372Z,83.68
2022-10-07T04:41:31.552Z,83.72
2022-10-07T04:44:34.308Z,84.00
2022-10-07T04:47:37.741Z,83.97
2022-10-07T04:50:40.523Z,83.84
2022-10-07T04:53:43.662Z,83.44
2022-10-07T04:56:49.627Z,83.53
2022-10-07T04:59:53.724Z,83.79
2022-10-07T05:02:56.963Z,83.40
2022-10-07T05:06:06.092Z,83.11
2022-10-07T05:09:10.645Z,83.42
2022-10-07T05:12:17.691Z,83.04
2022-10-07T05:15:20.705Z,82.89
2022-10-07T05:18:24.855Z,83.11
2022-10-07T05:21:29.363Z,83.11
2022-10-07T05:24:32.515Z,82.77
2022-10-07T05:27:35.529Z,82.55
2022-10-07T05:30:38.929Z,82.52
2022-10-07T05:33:42.802Z,82.48
2022-10-07T05:36:46.335Z,82.34
2022-10-07T05:39:49.199Z,82.11
2022-10-07T05:42:52.693Z,81.88
2022-10-07T05:46:01.244Z,81.68
2022-10-07T05:49:04.448Z,81.06
2022-10-07T05:52:07.884Z,81.30
2022-10-07T05:55:11.235Z,81.23
2022-10-07T05:58:14.028Z,80.98
2022-10-07T06:01:19.883Z,80.27
2022-10-07T06:04:23.921Z,80.00
2022-10-07T06:07:29.498Z,79.84
2022-10-07T06:10:52.924Z,79.65
2022-10-07T06:13:56.512Z,79.29
2022-10-07T06:17:04.851Z,78.80
2022-10-07T06:20:08.364Z,78.44
2022-10-07T06:23:11.412Z,77.70
2022-10-07T06:26:15.819Z,77.65
2022-10-07T06:29:18.819Z,76.98
2022-10-07T06:32:21.535Z,76.31
2022-10-07T06:35:24.949Z,76.00
2022-10-07T06:38:27.984Z,75.31
2022-10-07T06:41:31.127Z,75.42
2022-10-07T06:44:36.606Z,74.97
2022-10-07T06:47:43.249Z,74.37
2022-10-07T06:50:50.988Z,73.10
2022-10-07T06:53:57.934Z,73.17
2022-10-07T06:57:01.363Z,72.65
2022-10-07T07:00:05.256Z,72.16
2022-10-07T07:03:10.934Z,71.32
2022-10-07T07:06:14.964Z,70.13
2022-10-07T07:09:17.991Z,69.22
2022-10-07T07:12:25.259Z,68.50
2022-10-07T07:15:28.860Z,67.09
2022-10-07T07:18:37.977Z,65.86
2022-10-07T07:21:41.718Z,64.56
2022-10-07T07:24:45.106Z,63.45
2022-10-07T07:27:56.760Z,62.57
2022-10-07T07:31:09.864Z,61.05
2022-10-07T07:34:14.112Z,59.81
2022-10-07T07:37:17.733Z,58.00
2022-10-07T07:40:21.690Z,57.20
2022-10-07T07:43:26.356Z,51.31
2022-10-07T07:46:34.688Z,42.76
2022-10-07T07:49:37.654Z,30.43
2022-10-07T07:52:40.604Z,22.81
2022-10-07T07:55:56.511Z,18.72
2022-10-07T07:59:00.248Z,15.19
2022-10-07T08:02:06.783Z,13.56
2022-10-07T08:05:10.567Z,12.76
2022-10-07T08:08:14.894Z,11.88
2022-10-07T08:11:20.404Z,10.63
2022-10-07T08:14:23.573Z,10.35
2022-10-07T08:17:27.106Z,10.09
2022-10-07T08:20:30.666Z,9.99
2022-10-07T08:23:38.156Z,9.58
2022-10-07T08:26:41.188Z,9.29
2022-10-07T08:29:44.774Z,9.78
2022-10-07T08:32:47.605Z,9.08
2022-10-07T08:35:52.415Z,9.39
2022-10-07T08:38:55.192Z,10.07
2022-10-07T08:42:13.441Z,11.35
2022-10-07T08:45:29.408Z,13.36
2022-10-07T08:48:38.384Z,15.96
2022-10-07T08:51:46.743Z,18.40
2022-10-07T08:54:49.593Z,20.37
2022-10-07T08:58:07.768Z,21.46
2022-10-07T09:01:40.024Z,22.87
2022-10-07T09:05:10.917Z,24.20
2022-10-07T09:08:27.852Z,25.08
2022-10-07T09:11:33.316Z,25.48
2022-10-07T09:14:43.648Z,25.90
2022-10-07T09:17:57.908Z,25.39
2022-10-07T09:21:09.026Z,25.99
2022-10-07T09:24:24.467Z,26.07
2022-10-07T09:27:28.645Z,26.27
2022-10-07T09:30:32.515Z,26.64
2022-10-07T09:33:42.547Z,26.47
2022-10-07T09:37:16.431Z,26.49
2022-10-07T09:40:23.151Z,26.62
2022-10-07T09:43:27.575Z,26.54
2022-10-07T09:46:33.265Z,27.03
2022-10-07T09:49:43.008Z,27.19
2022-10-07T09:52:55.884Z,27.92
2022-10-07T09:55:58.987Z,28.56
2022-10-07T09:59:21.990Z,29.14
2022-10-07T10:02:26.249Z,28.24
2022-10-07T10:05:35.257Z,28.08
2022-10-07T10:08:44.812Z,27.84
2022-10-07T10:12:01.283Z,27.59
2022-10-07T10:15:42.198Z,27.25
2022-10-07T10:18:58.891Z,26.78
2022-10-07T10:22:01.849Z,26.62
2022-10-07T10:25:27.995Z,26.78
2022-10-07T10:28:47.761Z,26.34
2022-10-07T10:32:09.490Z,26.03
2022-10-07T10:35:19.559Z,25.75
2022-10-07T10:38:48.991Z,26.28
2022-10-07T10:42:05.176Z,26.08
2022-10-07T10:45:15.624Z,26.56
2022-10-07T10:48:21.659Z,26.56
2022-10-07T10:51:36.473Z,26.23
2022-10-07T10:54:50.588Z,25.93
2022-10-07T10:58:32.106Z,25.79
2022-10-07T11:01:35.357Z,26.10
2022-10-07T11:04:45.542Z,26.26
2022-10-07T11:07:54.269Z,26.19
2022-10-07T11:11:02.513Z,26.41
2022-10-07T11:14:12.243Z,26.36
2022-10-07T11:17:16.754Z,26.77
2022-10-07T11:20:45.003Z,26.81
2022-10-07T11:23:54.992Z,26.65
2022-10-07T11:27:04.464Z,26.50
2022-10-07T11:30:17.741Z,26.76
2022-10-07T11:33:32.754Z,26.65
2022-10-07T11:36:55.906Z,26.41
2022-10-07T11:39:58.776Z,26.53
2022-10-07T11:43:20.811Z,26.82
2022-10-07T11:46:36.960Z,26.73
2022-10-07T11:49:55.747Z,26.57
2022-10-07T11:53:24.228Z,26.96
2022-10-07T11:56:29.705Z,27.11
2022-10-07T11:59:41.629Z,26.86
2022-10-07T12:02:48.843Z,26.79
2022-10-07T12:05:53.350Z,27.14
2022-10-07T12:08:55.890Z,27.36
2022-10-07T12:11:59.158Z,27.53
2022-10-07T12:15:03.289Z,27.84
2022-10-07T12:18:06.264Z,27.64
2022-10-07T12:21:09.365Z,28.56
2022-10-07T12:24:15.718Z,28.90
2022-10-07T12:27:23.088Z,28.76
2022-10-07T12:30:42.528Z,29.14
2022-10-07T12:33:45.504Z,29.06
2022-10-07T12:36:49.028Z,29.43
2022-10-07T12:39:52.040Z,29.53
2022-10-07T12:43:03.997Z,30.10
2022-10-07T12:46:12.240Z,29.87
2022-10-07T12:49:32.190Z,30.30
2022-10-07T12:52:42.992Z,30.21
2022-10-07T12:55:53.214Z,30.81
2022-10-07T12:59:47.424Z,30.82
2022-10-07T13:03:47.393Z,31.05
2022-10-07T13:07:16.657Z,31.76
2022-10-07T13:10:47.633Z,32.19
2022-10-07T13:14:12.585Z,32.14
2022-10-07T13:17:28.359Z,32.27
2022-10-07T13:20:38.852Z,32.55
2022-10-07T13:23:50.879Z,32.41
2022-10-07T13:26:54.692Z,32.68
2022-10-07T13:30:00.237Z,33.09
2022-10-07T13:33:30.545Z,33.61
2022-10-07T13:36:43.774Z,33.68
2022-10-07T13:39:46.317Z,34.12
2022-10-07T13:43:00.952Z,34.49
2022-10-07T13:46:05.194Z,34.71
2022-10-07T13:49:21.932Z,35.12
2022-10-07T13:52:44.983Z,35.00
2022-10-07T13:55:48.847Z,35.40
2022-10-07T13:58:57.559Z,35.85
2022-10-07T14:02:01.378Z,36.46
2022-10-07T14:05:28.627Z,37.18
2022-10-07T14:08:31.734Z,37.64
2022-10-07T14:11:35.123Z,37.84
2022-10-07T14:14:45.665Z,38.14
2022-10-07T14:17:55.180Z,38.61
2022-10-07T14:21:09.940Z,39.36
2022-10-07T14:24:20.322Z,39.88
2022-10-07T14:27:59.949Z,40.37
2022-10-07T14:31:35.334Z,41.07
2022-10-07T14:35:02.167Z,41.51
2022-10-07T14:38:27.340Z,41.70
2022-10-07T14:41:31.652Z,42.25
2022-10-07T14:44:39.240Z,42.63
2022-10-07T14:47:47.884Z,43.33
2022-10-07T14:50:51.742Z,43.77
2022-10-07T14:54:01.781Z,44.30
2022-10-07T14:57:04.719Z,44.85
2022-10-07T15:00:12.132Z,45.16
2022-10-07T15:03:14.885Z,45.71
2022-10-07T15:06:17.928Z,46.30
2022-10-07T15:09:21.201Z,46.44
2022-10-07T15:12:24.482Z,46.50
2022-10-07T15:15:27.086Z,46.61
2022-10-07T15:18:32.903Z,46.63
2022-10-07T15:21:35.692Z,46.99
2022-10-07T15:24:39.893Z,47.82
2022-10-07T15:27:42.770Z,48.31
2022-10-07T15:30:45.380Z,48.58
2022-10-07T15:33:48.461Z,49.02
2022-10-07T15:36:51.009Z,49.33
2022-10-07T15:39:54.647Z,49.67
2022-10-07T15:42:58.185Z,49.93
2022-10-07T15:46:01.617Z,50.37
2022-10-07T15:49:05.816Z,50.80
2022-10-07T15:52:11.624Z,51.05
2022-10-07T15:55:16.274Z,51.30
2022-10-07T15:58:19.462Z,51.62
2022-10-07T16:01:22.218Z,51.93
2022-10-07T16:04:25.261Z,52.11
2022-10-07T16:07:28.394Z,52.48
2022-10-07T16:10:31.160Z,52.42
2022-10-07T16:13:38.096Z,52.39
2022-10-07T16:16:43.672Z,52.55
2022-10-07T16:19:46.369Z,52.49
2022-10-07T16:22:49.916Z,52.52
2022-10-07T16:25:52.622Z,52.74
2022-10-07T16:29:14.885Z,53.00
2022-10-07T16:32:17.542Z,53.20
2022-10-07T16:35:20.274Z,53.39
2022-10-07T16:38:23.121Z,53.63
2022-10-07T16:41:26.237Z,53.86
2022-10-07T16:44:29.646Z,53.85
2022-10-07T16:47:32.520Z,54.06
2022-10-07T16:50:35.188Z,54.38
2022-10-07T16:53:39.610Z,54.58
2022-10-07T16:56:48.211Z,54.68
2022-10-07T16:59:54.431Z,54.89
2022-10-07T17:02:57.108Z,55.19
2022-10-07T17:06:00.261Z,55.40
2022-10-07T17:09:04.628Z,55.71
2022-10-07T17:12:07.518Z,55.93
2022-10-07T17:15:10.896Z,56.21
2022-10-07T17:18:15.116Z,56.51
2022-10-07T17:21:18.970Z,56.67
2022-10-07T17:24:23.107Z,56.84
2022-10-07T17:27:25.765Z,57.04
2022-10-07T17:30:29.052Z,57.30
2022-10-07T17:33:31.764Z,57.47
2022-10-07T17:36:35.465Z,57.63
2022-10-07T17:39:39.250Z,57.89
2022-10-07T17:42:42.051Z,58.12
2022-10-07T17:45:44.980Z,58.27
2022-10-07T17:48:49.046Z,58.49
2022-10-07T17:51:55.212Z,58.58
2022-10-07T17:54:58.733Z,58.75
2022-10-07T17:58:01.559Z,58.97
2022-10-07T18:01:06.355Z,59.26
2022-10-07T18:04:17.112Z,59.41
2022-10-07T18:07:23.041Z,59.52
2022-10-07T18:10:25.898Z,59.64
2022-10-07T18:13:49.229Z,59.93
2022-10-07T18:16:52.169Z,60.15
2022-10-07T18:19:54.711Z,60.38
2022-10-07T18:22:58.651Z,60.55
2022-10-07T18:26:10.325Z,60.76
2022-10-07T18:29:13.536Z,60.83
2022-10-07T18:32:15.967Z,61.07
2022-10-07T18:35:18.868Z,61.29
2022-10-07T18:38:21.490Z,61.43
2022-10-07T18:41:24.337Z,61.57
2022-10-07T18:44:27.325Z,61.75
2022-10-07T18:47:31.098Z,62.00
2022-10-07T18:50:33.926Z,62.24
2022-10-07T18:53:39.091Z,62.45
2022-10-07T18:56:41.870Z,62.64
2022-10-07T18:59:46.220Z,62.85
2022-10-07T19:02:51.135Z,63.14
2022-10-07T19:05:54.216Z,63.32
2022-10-07T19:09:00.104Z,63.51
2022-10-07T19:12:03.251Z,63.73
2022-10-07T19:15:06.496Z,64.00
2022-10-07T19:18:10.380Z,64.20
2022-10-07T19:21:13.949Z,64.29
2022-10-07T19:24:17.885Z,64.47
2022-10-07T19:27:20.349Z,64.59
2022-10-07T19:30:23.310Z,64.73
2022-10-07T19:33:25.712Z,64.83
2022-10-07T19:36:29.689Z,64.96
2022-10-07T19:39:32.179Z,65.14
2022-10-07T19:42:37.189Z,65.19
2022-10-07T19:45:41.592Z,65.30
2022-10-07T19:48:45.057Z,65.54
2022-10-07T19:51:48.235Z,65.70
2022-10-07T19:54:51.503Z,65.81
2022-10-07T19:57:56.052Z,65.93
2022-10-07T20:01:07.030Z,65.90
2022-10-07T20:04:15.530Z,66.09
2022-10-07T20:07:20.922Z,66.41
2022-10-07T20:10:24.669Z,66.71
2022-10-07T20:13:27.306Z,66.86
2022-10-07T20:16:31.199Z,67.11
2022-10-07T20:19:35.415Z,67.36
2022-10-07T20:22:38.349Z,67.50
2022-10-07T20:25:40.990Z,67.76
2022-10-07T20:28:48.294Z,67.88
2022-10-07T20:31:53.008Z,68.12
2022-10-07T20:34:56.157Z,68.33
2022-10-07T20:37:58.678Z,68.52
2022-10-07T20:41:19.724Z,68.70
2022-10-07T20:44:22.558Z,68.81
2022-10-07T20:47:29.953Z,69.06
2022-10-07T20:50:33.355Z,69.35
2022-10-07T20:53:36.138Z,69.52
2022-10-07T20:56:38.763Z,69.63
2022-10-07T20:59:41.855Z,69.75
2022-10-07T21:02:47.472Z,69.93
2022-10-07T21:05:56.258Z,70.00
2022-10-07T21:08:59.286Z,70.17
2022-10-07T21:12:05.078Z,70.35
2022-10-07T21:15:07.936Z,70.50
2022-10-07T21:18:10.932Z,70.67
2022-10-07T21:21:13.889Z,70.86
2022-10-07T21:24:16.913Z,71.08
2022-10-07T21:27:19.945Z,71.39
2022-10-07T21:30:22.757Z,71.60
2022-10-07T21:33:27.212Z,71.70
2022-10-07T21:36:30.577Z,71.88
2022-10-07T21:39:33.486Z,72.07
2022-10-07T21:42:36.228Z,72.23
2022-10-07T21:45:39.797Z,72.37
2022-10-07T21:48:43.211Z,72.51
2022-10-07T21:51:45.986Z,72.67
2022-10-07T21:54:50.020Z,72.82
2022-10-07T21:57:52.828Z,72.96
2022-10-07T22:00:55.614Z,73.20
2022-10-07T22:04:01.411Z,73.35
2022-10-07T22:07:22.484Z,73.39
2022-10-07T22:10:25.447Z,73.44
2022-10-07T22:13:29.742Z,73.61
2022-10-07T22:16:36.667Z,73.80
2022-10-07T22:19:39.143Z,73.87
2022-10-07T22:22:42.330Z,73.95
2022-10-07T22:25:44.748Z,73.99
2022-10-07T22:28:47.974Z,74.01
2022-10-07T22:31:50.637Z,73.96
2022-10-07T22:35:12.038Z,74.02
2022-10-07T22:38:14.377Z,74.18
2022-10-07T22:41:19.458Z,74.22
2022-10-07T22:44:21.928Z,74.28
2022-10-07T22:47:24.873Z,74.33
2022-10-07T22:50:27.347Z,74.47
2022-10-07T22:53:30.272Z,74.54
2022-10-07T22:56:32.677Z,74.53
2022-10-07T22:59:38.706Z,74.54
2022-10-07T23:02:41.694Z,74.52
2022-10-07T23:05:45.236Z,74.47
2022-10-07T23:08:48.770Z,74.54
2022-10-07T23:11:52.140Z,74.52
2022-10-07T23:14:54.583Z,74.56
2022-10-07T23:17:57.565Z,74.48
2022-10-07T23:21:21.404Z,74.48
2022-10-07T23:24:24.497Z,74.56
2022-10-07T23:27:26.928Z,74.74
2022-10-07T23:30:29.807Z,74.71
2022-10-07T23:33:33.839Z,74.80
2022-10-07T23:36:36.832Z,74.76
2022-10-07T23:39:39.250Z,74.85
2022-10-07T23:42:42.176Z,74.95
2022-10-07T23:45:47.458Z,75.08
2022-10-07T23:48:50.916Z,75.27
2022-10-07T23:51:53.444Z,75.37
2022-10-07T23:54:56.295Z,75.36
2022-10-07T23:57:58.733Z,75.44
